createdAt,value
2022-10-05T00:00:27.235Z,10.05
2022-10-05T00:02:54.112Z,10.52
2022-10-05T00:05:23.775Z,11.13
2022-10-05T00:07:50.834Z,10.35
2022-10-05T00:10:17.907Z,11.70
2022-10-05T00:12:45.468Z,11.68
2022-10-05T00:15:12.773Z,11.43
2022-10-05T00:17:41.210Z,10.68
2022-10-05T00:20:16.374Z,10.18
2022-10-05T00:22:42.766Z,10.35
2022-10-05T00:25:17.256Z,10.30
2022-10-05T00:27:45.896Z,8.57
2022-10-05T00:30:16.672Z,8.18
2022-10-05T00:32:43.618Z,10.93
2022-10-05T00:35:10.774Z,8.23
2022-10-05T00:37:37.207Z,9.00
2022-10-05T00:40:33.524Z,9.23
2022-10-05T00:43:03.038Z,6.90
2022-10-05T00:45:31.262Z,7.53
2022-10-05T00:48:05.453Z,6.70
2022-10-05T00:50:37.586Z,7.13
2022-10-05T00:53:22.480Z,6.80
2022-10-05T00:55:48.748Z,9.45
2022-10-05T00:58:37.233Z,14.65
2022-10-05T01:01:14.415Z,9.70
2022-10-05T01:04:01.494Z,10.02
2022-10-05T01:06:40.087Z,7.13
2022-10-05T01:09:06.602Z,6.43
2022-10-05T01:11:36.239Z,7.07
2022-10-05T01:14:12.313Z,9.00
2022-10-05T01:16:48.533Z,6.07
2022-10-05T01:19:24.440Z,10.48
2022-10-05T01:21:53.910Z,5.85
2022-10-05T01:24:29.670Z,10.32
2022-10-05T01:27:02.806Z,7.10
2022-10-05T01:29:47.444Z,5.45
2022-10-05T01:32:18.663Z,5.40
2022-10-05T01:34:52.322Z,5.68
2022-10-05T01:37:27.134Z,6.85
2022-10-05T01:40:08.579Z,6.95
2022-10-05T01:42:47.149Z,9.05
2022-10-05T01:45:13.517Z,13.55
2022-10-05T01:47:39.782Z,9.52
2022-10-05T01:50:28.979Z,11.63
2022-10-05T01:53:02.695Z,9.70
2022-10-05T01:55:45.033Z,10.38
2022-10-05T01:58:26.631Z,11.57
2022-10-05T02:01:05.413Z,11.07
2022-10-05T02:03:37.006Z,12.40
2022-10-05T02:06:27.014Z,13.90
2022-10-05T02:09:06.661Z,14.48
2022-10-05T02:11:33.991Z,15.05
2022-10-05T02:14:06.160Z,12.32
2022-10-05T02:16:49.119Z,13.73
2022-10-05T02:19:21.942Z,12.05
2022-10-05T02:21:50.658Z,10.40
2022-10-05T02:24:24.905Z,13.93
2022-10-05T02:26:52.674Z,13.05
2022-10-05T02:29:22.173Z,11.98
2022-10-05T02:31:57.563Z,12.13
2022-10-05T02:34:26.818Z,16.00
2022-10-05T02:37:06.982Z,17.95
2022-10-05T02:39:45.219Z,11.15
2022-10-05T02:42:26.103Z,14.90
2022-10-05T02:44:55.602Z,12.65
2022-10-05T02:47:27.830Z,12.63
2022-10-05T02:50:00.592Z,16.00
2022-10-05T02:52:33.936Z,11.02
2022-10-05T02:55:03.339Z,11.98
2022-10-05T02:57:37.534Z,10.82
2022-10-05T03:00:13.591Z,12.70
2022-10-05T03:02:54.203Z,13.82
2022-10-05T03:05:23.668Z,16.77
2022-10-05T03:08:02.460Z,12.30
2022-10-05T03:10:45.495Z,14.32
2022-10-05T03:13:47.616Z,12.95
2022-10-05T03:16:27.961Z,12.30
2022-10-05T03:19:13.794Z,11.18
2022-10-05T03:21:50.111Z,14.52
2022-10-05T03:24:29.844Z,12.85
2022-10-05T03:26:56.363Z,11.95
2022-10-05T03:29:23.056Z,14.05
2022-10-05T03:32:02.834Z,12.50
2022-10-05T03:34:37.864Z,9.07
2022-10-05T03:37:10.221Z,10.45
2022-10-05T03:39:37.423Z,11.02
2022-10-05T03:42:04.017Z,11.88
2022-10-05T03:44:50.681Z,11.85
2022-10-05T03:47:36.535Z,11.65
2022-10-05T03:50:16.387Z,11.73
2022-10-05T03:52:51.495Z,12.93
2022-10-05T03:55:18.759Z,10.15
2022-10-05T03:57:46.747Z,10.70
2022-10-05T04:00:14.937Z,12.10
2022-10-05T04:02:52.179Z,12.88
2022-10-05T04:05:27.079Z,12.80
2022-10-05T04:07:56.670Z,10.30
2022-10-05T04:10:35.143Z,10.13
2022-10-05T04:13:04.697Z,12.10
2022-10-05T04:15:39.727Z,13.32
2022-10-05T04:18:11.305Z,12.02
2022-10-05T04:20:48.851Z,10.65
2022-10-05T04:23:34.305Z,12.23
2022-10-05T04:26:04.763Z,10.93
2022-10-05T04:28:40.134Z,9.32
2022-10-05T04:31:11.049Z,9.73
2022-10-05T04:33:37.779Z,11.15
2022-10-05T04:36:11.654Z,8.00
2022-10-05T04:38:41.540Z,11.07
2022-10-05T04:41:18.526Z,6.72
2022-10-05T04:43:56.405Z,6.03
2022-10-05T04:46:38.466Z,8.10
2022-10-05T04:49:13.744Z,7.22
2022-10-05T04:51:53.371Z,8.30
2022-10-05T04:54:39.500Z,5.28
2022-10-05T04:57:10.647Z,9.13
2022-10-05T04:59:58.834Z,6.55
2022-10-05T05:02:28.161Z,5.95
2022-10-05T05:04:57.703Z,5.03
2022-10-05T05:07:40.478Z,4.68
2022-10-05T05:10:15.684Z,5.25
2022-10-05T05:13:01.683Z,5.70
2022-10-05T05:15:48.289Z,4.68
2022-10-05T05:18:31.435Z,3.33
2022-10-05T05:21:15.675Z,3.63
2022-10-05T05:23:42.135Z,4.32
2022-10-05T05:26:28.209Z,3.47
2022-10-05T05:29:05.547Z,2.92
2022-10-05T05:31:59.204Z,3.72
2022-10-05T05:34:25.635Z,3.50
2022-10-05T05:37:04.011Z,2.90
2022-10-05T05:39:38.644Z,2.47
2022-10-05T05:42:11.393Z,2.25
2022-10-05T05:44:46.355Z,2.63
2022-10-05T05:47:18.974Z,2.20
2022-10-05T05:50:06.935Z,1.92
2022-10-05T05:52:39.401Z,1.60
2022-10-05T05:55:12.371Z,2.83
2022-10-05T05:57:41.149Z,2.70
2022-10-05T06:00:16.350Z,2.25
2022-10-05T06:02:55.657Z,1.80
2022-10-05T06:05:22.599Z,1.80
2022-10-05T06:07:51.125Z,1.90
2022-10-05T06:10:20.564Z,3.85
2022-10-05T06:13:01.831Z,2.13
2022-10-05T06:15:33.843Z,2.97
2022-10-05T06:18:02.819Z,2.28
2022-10-05T06:20:39.012Z,2.15
2022-10-05T06:23:12.323Z,2.38
2022-10-05T06:25:51.283Z,3.90
2022-10-05T06:28:19.487Z,2.67
2022-10-05T06:31:08.533Z,2.97
2022-10-05T06:33:40.519Z,2.10
2022-10-05T06:36:15.285Z,2.08
2022-10-05T06:38:57.175Z,2.15
2022-10-05T06:41:39.006Z,2.42
2022-10-05T06:44:09.563Z,2.83
2022-10-05T06:46:56.642Z,2.88
2022-10-05T06:49:53.414Z,2.20
2022-10-05T06:52:53.728Z,3.30
2022-10-05T06:55:30.257Z,2.50
2022-10-05T06:58:05.046Z,3.15
2022-10-05T07:00:37.352Z,2.33
2022-10-05T07:03:24.410Z,4.28
2022-10-05T07:05:51.411Z,4.85
2022-10-05T07:08:37.592Z,2.25
2022-10-05T07:11:03.895Z,4.43
2022-10-05T07:13:34.354Z,3.78
2022-10-05T07:16:21.044Z,2.97
2022-10-05T07:18:50.961Z,3.40
2022-10-05T07:21:39.333Z,2.80
2022-10-05T07:24:27.189Z,6.85
2022-10-05T07:27:11.966Z,4.88
2022-10-05T07:29:43.623Z,5.47
2022-10-05T07:32:09.928Z,3.00
2022-10-05T07:34:43.890Z,4.00
2022-10-05T07:37:32.041Z,3.25
2022-10-05T07:40:14.951Z,2.72
2022-10-05T07:42:57.235Z,3.42
2022-10-05T07:45:34.545Z,5.57
2022-10-05T07:48:22.392Z,2.95
2022-10-05T07:50:58.604Z,3.05
2022-10-05T07:53:45.368Z,2.42
2022-10-05T07:56:21.869Z,4.85
2022-10-05T07:58:50.867Z,5.53
2022-10-05T08:01:21.934Z,4.45
2022-10-05T08:04:09.166Z,3.80
2022-10-05T08:07:11.106Z,3.80
2022-10-05T08:09:55.475Z,2.63
2022-10-05T08:12:24.906Z,2.67
2022-10-05T08:14:57.149Z,2.83
2022-10-05T08:17:25.583Z,4.57
2022-10-05T08:20:04.522Z,3.67
2022-10-05T08:22:34.820Z,2.85
2022-10-05T08:25:05.559Z,3.03
2022-10-05T08:27:50.744Z,4.80
2022-10-05T08:30:17.326Z,4.47
2022-10-05T08:32:55.006Z,3.30
2022-10-05T08:35:39.136Z,4.85
2022-10-05T08:38:12.039Z,4.18
2022-10-05T08:40:57.138Z,3.35
2022-10-05T08:43:23.485Z,3.42
2022-10-05T08:46:08.090Z,4.38
2022-10-05T08:48:43.211Z,4.45
2022-10-05T08:51:18.521Z,5.18
2022-10-05T08:53:57.927Z,8.38
2022-10-05T08:56:38.138Z,5.20
2022-10-05T08:59:07.551Z,2.80
2022-10-05T09:01:33.914Z,3.22
2022-10-05T09:04:03.390Z,6.70
2022-10-05T09:06:51.005Z,4.32
2022-10-05T09:09:36.035Z,3.60
2022-10-05T09:12:05.736Z,4.07
2022-10-05T09:14:56.586Z,2.60
2022-10-05T09:17:42.399Z,6.70
2022-10-05T09:20:17.905Z,2.50
2022-10-05T09:23:01.787Z,4.25
2022-10-05T09:25:39.886Z,5.93
2022-10-05T09:28:23.759Z,6.35
2022-10-05T09:30:56.046Z,2.88
2022-10-05T09:33:31.613Z,3.90
2022-10-05T09:36:01.960Z,2.30
2022-10-05T09:38:43.426Z,2.33
2022-10-05T09:41:22.024Z,3.50
2022-10-05T09:44:02.242Z,6.82
2022-10-05T09:46:40.819Z,2.42
2022-10-05T09:49:23.804Z,4.55
2022-10-05T09:52:08.848Z,2.80
2022-10-05T09:54:50.717Z,3.30
2022-10-05T09:57:26.056Z,2.75
2022-10-05T09:59:55.488Z,2.60
2022-10-05T10:02:43.471Z,3.63
2022-10-05T10:05:09.872Z,6.72
2022-10-05T10:08:11.571Z,2.72
2022-10-05T10:10:56.142Z,4.70
2022-10-05T10:13:41.027Z,5.38
2022-10-05T10:16:31.841Z,4.53
2022-10-05T10:18:58.327Z,3.22
2022-10-05T10:21:33.550Z,3.33
2022-10-05T10:24:18.635Z,7.00
2022-10-05T10:27:03.886Z,6.00
2022-10-05T10:29:39.600Z,5.60
2022-10-05T10:32:32.391Z,3.00
2022-10-05T10:35:25.015Z,6.93
2022-10-05T10:37:58.502Z,4.75
2022-10-05T10:40:30.000Z,4.15
2022-10-05T10:42:56.342Z,3.60
2022-10-05T10:45:37.539Z,4.38
2022-10-05T10:48:05.170Z,4.75
2022-10-05T10:50:47.153Z,3.38
2022-10-05T10:53:25.851Z,7.13
2022-10-05T10:56:11.811Z,4.85
2022-10-05T10:58:40.908Z,5.68
2022-10-05T11:01:26.092Z,3.92
2022-10-05T11:04:07.836Z,3.08
2022-10-05T11:06:46.195Z,4.47
2022-10-05T11:09:12.492Z,7.35
2022-10-05T11:11:51.258Z,5.18
2022-10-05T11:14:36.333Z,6.00
2022-10-05T11:17:15.425Z,5.63
2022-10-05T11:20:04.490Z,5.57
2022-10-05T11:22:39.313Z,4.93
2022-10-05T11:25:24.559Z,5.72
2022-10-05T11:27:53.901Z,6.60
2022-10-05T11:30:21.223Z,3.95
2022-10-05T11:32:56.655Z,5.75
2022-10-05T11:35:25.687Z,7.28
2022-10-05T11:37:58.321Z,7.32
2022-10-05T11:40:45.846Z,3.97
2022-10-05T11:43:15.249Z,3.70
2022-10-05T11:45:56.115Z,6.10
2022-10-05T11:50:54.311Z,5.22
2022-10-05T11:53:26.689Z,5.80
2022-10-05T11:56:04.927Z,5.20
2022-10-05T11:58:46.825Z,6.85
2022-10-05T12:01:21.944Z,4.25
2022-10-05T12:03:57.063Z,3.58
2022-10-05T12:06:35.374Z,5.28
2022-10-05T12:09:07.832Z,4.55
2022-10-05T12:11:40.115Z,8.23
2022-10-05T12:14:26.770Z,5.93
2022-10-05T12:16:56.211Z,4.50
2022-10-05T12:19:45.632Z,8.57
2022-10-05T12:22:15.466Z,5.38
2022-10-05T12:24:44.639Z,3.03
2022-10-05T12:27:12.789Z,5.60
2022-10-05T12:29:39.360Z,4.20
2022-10-05T12:32:11.716Z,6.15
2022-10-05T12:34:49.436Z,4.85
2022-10-05T12:37:18.579Z,6.90
2022-10-05T12:39:50.855Z,5.25
2022-10-05T12:42:29.213Z,3.38
2022-10-05T12:45:10.672Z,8.13
2022-10-05T12:47:56.010Z,4.80
2022-10-05T12:50:33.531Z,4.68
2022-10-05T12:53:00.390Z,5.13
2022-10-05T12:55:45.695Z,5.93
2022-10-05T12:58:12.007Z,4.47
2022-10-05T13:00:43.741Z,4.80
2022-10-05T13:03:16.492Z,5.07
2022-10-05T13:06:07.342Z,4.38
2022-10-05T13:08:46.087Z,4.38
2022-10-05T13:11:20.015Z,3.28
2022-10-05T13:13:57.531Z,5.20
2022-10-05T13:16:23.944Z,3.38
2022-10-05T13:18:50.697Z,3.63
2022-10-05T13:21:35.434Z,3.70
2022-10-05T13:24:12.310Z,3.95
2022-10-05T13:26:44.150Z,7.10
2022-10-05T13:29:23.901Z,4.60
2022-10-05T13:31:55.794Z,4.50
2022-10-05T13:34:49.533Z,3.03
2022-10-05T13:37:27.917Z,4.60
2022-10-05T13:39:54.435Z,2.60
2022-10-05T13:42:35.980Z,3.97
2022-10-05T13:45:17.494Z,3.88
2022-10-05T13:47:50.011Z,5.20
2022-10-05T13:50:28.509Z,3.08
2022-10-05T13:52:57.487Z,3.38
2022-10-05T13:55:25.655Z,8.10
2022-10-05T13:58:12.600Z,4.07
2022-10-05T14:00:48.322Z,4.00
2022-10-05T14:03:32.483Z,5.15
2022-10-05T14:06:00.467Z,8.80
2022-10-05T14:08:28.598Z,5.07
2022-10-05T14:10:56.046Z,5.85
2022-10-05T14:13:28.668Z,3.92
2022-10-05T14:16:14.542Z,3.97
2022-10-05T14:18:54.949Z,6.40
2022-10-05T14:21:24.723Z,9.13
2022-10-05T14:23:52.031Z,4.70
2022-10-05T14:26:24.615Z,11.68
2022-10-05T14:28:58.737Z,3.17
2022-10-05T14:31:37.398Z,3.58
2022-10-05T14:34:23.304Z,5.88
2022-10-05T14:36:55.282Z,4.45
2022-10-05T14:39:25.564Z,5.63
2022-10-05T14:41:52.015Z,4.22
2022-10-05T14:44:24.331Z,7.57
2022-10-05T14:46:55.663Z,3.10
2022-10-05T14:49:29.801Z,3.53
2022-10-05T14:51:56.864Z,4.40
2022-10-05T14:54:41.154Z,3.10
2022-10-05T14:57:30.697Z,6.07
2022-10-05T15:00:16.510Z,4.10
2022-10-05T15:02:52.384Z,6.68
2022-10-05T15:05:23.414Z,4.85
2022-10-05T15:07:51.386Z,4.15
2022-10-05T15:10:33.074Z,4.70
2022-10-05T15:13:12.323Z,5.20
2022-10-05T15:15:38.692Z,2.92
2022-10-05T15:18:20.212Z,8.43
2022-10-05T15:20:49.729Z,4.25
2022-10-05T15:23:37.635Z,6.97
2022-10-05T15:26:15.528Z,4.93
2022-10-05T15:28:59.635Z,6.93
2022-10-05T15:31:35.489Z,3.03
2022-10-05T15:34:07.927Z,4.10
2022-10-05T15:36:47.868Z,4.10
2022-10-05T15:39:26.862Z,3.67
2022-10-05T15:41:58.809Z,6.72
2022-10-05T15:44:41.419Z,4.13
2022-10-05T15:47:13.344Z,9.73
2022-10-05T15:49:47.949Z,5.78
2022-10-05T15:52:29.485Z,2.55
2022-10-05T15:55:08.407Z,4.85
2022-10-05T15:57:37.640Z,2.20
2022-10-05T16:00:14.379Z,3.65
2022-10-05T16:02:51.422Z,3.10
2022-10-05T16:05:44.334Z,4.00
2022-10-05T16:08:47.984Z,4.32
2022-10-05T16:11:19.260Z,3.85
2022-10-05T16:13:51.253Z,2.30
2022-10-05T16:16:35.581Z,5.20
2022-10-05T16:19:22.243Z,4.13
2022-10-05T16:21:53.973Z,7.78
2022-10-05T16:24:48.962Z,4.50
2022-10-05T16:27:21.223Z,4.13
2022-10-05T16:29:54.374Z,2.58
2022-10-05T16:32:41.109Z,7.28
2022-10-05T16:35:24.825Z,3.83
2022-10-05T16:38:02.464Z,3.33
2022-10-05T16:40:37.018Z,7.03
2022-10-05T16:43:22.367Z,6.30
2022-10-05T16:45:49.452Z,6.97
2022-10-05T16:48:36.075Z,5.60
2022-10-05T16:51:19.689Z,3.38
2022-10-05T16:53:59.124Z,4.60
2022-10-05T16:56:28.597Z,5.10
2022-10-05T16:59:10.491Z,8.23
2022-10-05T17:01:43.608Z,7.40
2022-10-05T17:04:23.540Z,5.88
2022-10-05T17:06:49.991Z,2.97
2022-10-05T17:09:19.567Z,3.13
2022-10-05T17:11:53.291Z,3.70
2022-10-05T17:14:22.763Z,5.53
2022-10-05T17:17:08.391Z,3.53
2022-10-05T17:19:40.731Z,10.07
2022-10-05T17:22:28.924Z,4.03
2022-10-05T17:25:14.218Z,4.57
2022-10-05T17:27:54.473Z,3.45
2022-10-05T17:30:23.928Z,9.48
2022-10-05T17:32:57.918Z,2.63
2022-10-05T17:35:43.246Z,6.57
2022-10-05T17:38:14.959Z,6.75
2022-10-05T17:41:02.968Z,9.35
2022-10-05T17:43:30.691Z,5.95
2022-10-05T17:45:58.832Z,4.25
2022-10-05T17:48:45.640Z,4.55
2022-10-05T17:51:35.171Z,10.15
2022-10-05T17:54:35.870Z,12.20
2022-10-05T17:57:02.721Z,5.20
2022-10-05T17:59:56.780Z,11.45
2022-10-05T18:02:40.644Z,8.88
2022-10-05T18:05:12.048Z,5.55
2022-10-05T18:07:42.454Z,5.05
2022-10-05T18:10:11.766Z,4.00
2022-10-05T18:12:45.752Z,6.88
2022-10-05T18:15:22.247Z,4.82
2022-10-05T18:17:54.672Z,3.15
2022-10-05T18:20:24.048Z,6.30
2022-10-05T18:22:52.652Z,5.15
2022-10-05T18:25:22.319Z,5.82
2022-10-05T18:28:00.825Z,2.30
2022-10-05T18:30:30.959Z,5.55
2022-10-05T18:32:57.390Z,2.53
2022-10-05T18:35:39.296Z,8.13
2022-10-05T18:38:15.338Z,5.95
2022-10-05T18:40:59.926Z,5.50
2022-10-05T18:43:26.593Z,7.85
2022-10-05T18:46:08.391Z,3.95
2022-10-05T18:48:46.689Z,3.28
2022-10-05T18:51:13.017Z,3.10
2022-10-05T18:53:50.704Z,8.95
2022-10-05T18:56:17.207Z,4.95
2022-10-05T18:58:56.748Z,8.85
2022-10-05T19:01:27.945Z,7.78
2022-10-05T19:04:14.091Z,6.13
2022-10-05T19:07:01.603Z,5.75
2022-10-05T19:09:43.236Z,7.82
2022-10-05T19:12:29.309Z,4.63
2022-10-05T19:15:00.723Z,8.45
2022-10-05T19:17:27.099Z,6.88
2022-10-05T19:20:12.909Z,5.85
2022-10-05T19:22:42.550Z,5.75
2022-10-05T19:25:42.508Z,9.40
2022-10-05T19:28:27.867Z,11.23
2022-10-05T19:31:03.132Z,11.18
2022-10-05T19:33:35.730Z,13.80
2022-10-05T19:36:02.310Z,5.43
2022-10-05T19:38:48.880Z,2.53
2022-10-05T19:41:27.587Z,3.08
2022-10-05T19:44:05.450Z,3.13
2022-10-05T19:46:34.513Z,3.50
2022-10-05T19:49:00.931Z,3.63
2022-10-05T19:51:29.643Z,4.63
2022-10-05T19:54:29.770Z,4.30
2022-10-05T19:56:57.041Z,4.55
2022-10-05T19:59:32.743Z,5.28
2022-10-05T20:01:59.585Z,3.78
2022-10-05T20:04:32.401Z,4.13
2022-10-05T20:06:59.144Z,3.15
2022-10-05T20:09:25.679Z,5.22
2022-10-05T20:11:52.866Z,8.07
2022-10-05T20:14:20.426Z,5.93
2022-10-05T20:17:05.423Z,3.50
2022-10-05T20:19:54.456Z,9.27
2022-10-05T20:22:36.374Z,7.25
2022-10-05T20:25:05.633Z,5.28
2022-10-05T20:27:36.444Z,5.68
2022-10-05T20:30:03.391Z,5.72
2022-10-05T20:32:30.813Z,12.60
2022-10-05T20:34:57.351Z,12.52
2022-10-05T20:37:23.934Z,5.45
2022-10-05T20:39:51.353Z,7.85
2022-10-05T20:42:18.056Z,4.50
2022-10-05T20:44:44.482Z,6.07
2022-10-05T20:47:11.344Z,7.38
2022-10-05T20:49:38.803Z,5.88
2022-10-05T20:52:06.252Z,7.63
2022-10-05T20:54:32.620Z,8.35
2022-10-05T20:56:58.994Z,5.80
2022-10-05T20:59:25.735Z,6.35
2022-10-05T21:01:52.132Z,3.53
2022-10-05T21:04:19.729Z,4.50
2022-10-05T21:06:46.120Z,2.38
2022-10-05T21:09:14.785Z,2.67
2022-10-05T21:11:41.618Z,7.97
2022-10-05T21:14:08.806Z,3.75
2022-10-05T21:16:38.280Z,1.52
2022-10-05T21:19:12.411Z,2.65
2022-10-05T21:21:39.777Z,2.45
2022-10-05T21:24:06.595Z,2.85
2022-10-05T21:26:33.116Z,4.32
2022-10-05T21:28:59.848Z,2.50
2022-10-05T21:31:26.969Z,0.93
2022-10-05T21:33:53.895Z,2.63
2022-10-05T21:36:23.887Z,2.17
2022-10-05T21:38:51.776Z,4.63
2022-10-05T21:41:18.269Z,2.08
2022-10-05T21:43:44.706Z,1.02
2022-10-05T21:46:12.911Z,2.75
2022-10-05T21:48:39.560Z,0.80
2022-10-05T21:51:07.595Z,4.50
2022-10-05T21:53:35.241Z,1.33
2022-10-05T21:56:03.119Z,3.03
2022-10-05T21:58:30.208Z,2.15
2022-10-05T22:00:56.767Z,1.60
2022-10-05T22:03:23.358Z,0.77
2022-10-05T22:05:49.714Z,3.08
2022-10-05T22:08:26.179Z,1.30
2022-10-05T22:10:54.620Z,1.85
2022-10-05T22:13:22.836Z,9.05
2022-10-05T22:15:49.132Z,2.70
2022-10-05T22:18:17.144Z,2.05
2022-10-05T22:20:44.053Z,4.50
2022-10-05T22:23:10.459Z,3.22
2022-10-05T22:25:37.100Z,3.17
2022-10-05T22:28:04.267Z,7.20
2022-10-05T22:30:30.680Z,5.03
2022-10-05T22:32:57.008Z,3.65
2022-10-05T22:35:23.426Z,5.25
2022-10-05T22:37:49.725Z,7.63
2022-10-05T22:40:16.179Z,4.93
2022-10-05T22:42:42.525Z,5.15
2022-10-05T22:45:08.969Z,6.95
2022-10-05T22:47:35.248Z,9.63
2022-10-05T22:50:01.952Z,6.65
2022-10-05T22:52:28.479Z,4.82
2022-10-05T22:54:54.928Z,9.70
2022-10-05T22:57:21.191Z,7.82
2022-10-05T22:59:47.643Z,9.55
2022-10-05T23:02:14.017Z,5.90
2022-10-05T23:04:40.580Z,6.78
2022-10-05T23:07:06.876Z,8.55
2022-10-05T23:09:33.159Z,9.95
2022-10-05T23:11:59.451Z,11.30
2022-10-05T23:14:25.902Z,7.78
2022-10-05T23:16:52.271Z,12.40
2022-10-05T23:19:18.679Z,11.75
2022-10-05T23:21:45.069Z,16.45
2022-10-05T23:24:11.840Z,7.97
2022-10-05T23:26:38.274Z,15.35
2022-10-05T23:29:04.612Z,10.40
2022-10-05T23:31:31.917Z,8.38
2022-10-05T23:33:58.423Z,7.85
2022-10-05T23:36:26.112Z,12.07
2022-10-05T23:38:52.541Z,12.90
2022-10-05T23:41:19.867Z,11.68
2022-10-05T23:43:46.444Z,16.10
2022-10-05T23:46:13.335Z,12.23
2022-10-05T23:48:39.674Z,10.68
2022-10-05T23:51:06.917Z,7.97
2022-10-05T23:53:33.659Z,14.18
2022-10-05T23:56:00.189Z,11.52
2022-10-05T23:58:27.083Z,10.63
